首页
METAR-TAF:

METAR-TAF

机场 :

策尔特韦格, 奥地利

纬度: 47-12N, 经度: 014-45E, 海拔: 677米

当前天气观测

该预报发布于50分钟前的15:50 UTC
风速1节,风向
温度 15°C
湿度 67%
气压 1002 hPa

METAR: LOXZ 051550Z 36001KT 30KM FEW020ST BKN070SC 15/09 Q1002

时间: 18:40 (16:40 UTC)

预报

该预报发布于5小时和25分钟前的11:15 UTC
预报有效从05日的 12点(UTC)到 05日的 21点(UTC)
风速3节,风向多变
能見度: 9000
少量云层高于1200英尺
散云层高于3000英尺
多云层高于6000英尺
成为
从 05日的 12点(UTC)到 05日的 14点(UTC)
能见度10公里或以上
少量云层高于5000英尺
多云层高于7000英尺

TAF: LOXZ 051115Z 0512/0521 VRB03KT 9000 RA FEW012 SCT030 BKN060 BECMG 0512/0514 9999 NSW FEW050 BKN070

超过4000个机场的气象观测和天气预报(METAR&TAF报告)。

可查询的气象台以黄色和红色小点在地图上表示。

将鼠标移到小点上方,可查看气象台名称。

然后点击查看天气观测和预报。

如需切换地图:点击带黑十字的绿色按钮放大地图;点击带横线的绿色按钮缩小地图;或者点击绿色箭头查看邻近地区的地图。


METAR-TAF: